createdAt,value
2023-02-05T00:00:07.864Z,103593.66
2023-02-05T00:02:36.239Z,103589.34
2023-02-05T00:05:06.827Z,103582.97
2023-02-05T00:07:34.911Z,103580.81
2023-02-05T00:10:03.558Z,103573.47
2023-02-05T00:12:31.839Z,103565.34
2023-02-05T00:15:00.009Z,103567.34
2023-02-05T00:17:28.618Z,103565.19
2023-02-05T00:19:56.692Z,103557.94
2023-02-05T00:22:26.284Z,103565.41
2023-02-05T00:24:54.232Z,103567.66
2023-02-05T00:27:22.587Z,103566.28
2023-02-05T00:29:50.661Z,103566.13
2023-02-05T00:32:18.598Z,103564.78
2023-02-05T00:34:46.918Z,103555.22
2023-02-05T00:37:14.963Z,103545.47
2023-02-05T00:39:44.464Z,103537.41
2023-02-05T00:42:13.642Z,103543.16
2023-02-05T00:44:41.732Z,103543.25
2023-02-05T00:47:09.760Z,103551.06
2023-02-05T00:49:37.671Z,103555.06
2023-02-05T00:52:05.872Z,103550.50
2023-02-05T00:54:33.987Z,103555.22
2023-02-05T00:57:03.611Z,103562.16
2023-02-05T00:59:31.585Z,103559.75
2023-02-05T01:02:00.130Z,103559.53
2023-02-05T01:04:28.146Z,103562.25
2023-02-05T01:06:56.198Z,103549.78
2023-02-05T01:09:24.429Z,103545.25
2023-02-05T01:11:52.617Z,103547.84
2023-02-05T01:14:21.977Z,103544.59
2023-02-05T01:16:50.369Z,103546.63
2023-02-05T01:19:18.516Z,103534.19
2023-02-05T01:21:46.517Z,103534.56
2023-02-05T01:24:14.592Z,103535.19
2023-02-05T01:26:42.512Z,103537.44
2023-02-05T01:29:10.490Z,103532.28
2023-02-05T01:31:47.681Z,103532.91
2023-02-05T01:34:16.260Z,103511.31
2023-02-05T01:36:44.571Z,103506.03
2023-02-05T01:39:12.615Z,103513.59
2023-02-05T01:41:42.692Z,103512.06
2023-02-05T01:44:13.120Z,103502.50
2023-02-05T01:46:43.671Z,103496.69
2023-02-05T01:49:16.489Z,103487.66
2023-02-05T01:51:46.475Z,103490.81
2023-02-05T01:54:15.972Z,103492.41
2023-02-05T01:56:50.513Z,103491.31
2023-02-05T01:59:21.383Z,103497.19
2023-02-05T02:01:51.925Z,103489.53
2023-02-05T02:04:35.713Z,103495.06
2023-02-05T02:07:04.111Z,103496.25
2023-02-05T02:09:32.209Z,103505.41
2023-02-05T02:12:00.314Z,103501.25
2023-02-05T02:14:32.042Z,103501.19
2023-02-05T02:17:03.873Z,103494.69
2023-02-05T02:19:36.294Z,103488.88
2023-02-05T02:22:24.177Z,103486.16
2023-02-05T02:25:22.578Z,103473.94
2023-02-05T02:27:55.663Z,103471.66
2023-02-05T02:30:27.649Z,103463.53
2023-02-05T02:33:05.085Z,103460.72
2023-02-05T02:35:42.300Z,103456.88
2023-02-05T02:38:16.959Z,103457.00
2023-02-05T02:40:53.195Z,103449.66
2023-02-05T02:43:31.726Z,103447.88
2023-02-05T02:46:06.135Z,103438.63
2023-02-05T02:48:39.083Z,103442.19
2023-02-05T02:51:09.658Z,103431.72
2023-02-05T02:53:41.008Z,103413.81
2023-02-05T02:56:12.929Z,103423.97
2023-02-05T02:59:06.220Z,103426.31
2023-02-05T03:01:39.839Z,103419.09
2023-02-05T03:04:12.994Z,103422.59
2023-02-05T03:06:44.518Z,103430.56
2023-02-05T03:09:19.289Z,103447.16
2023-02-05T03:11:48.395Z,103453.28
2023-02-05T03:14:25.290Z,103446.06
2023-02-05T03:16:58.267Z,103451.28
2023-02-05T03:19:28.270Z,103443.88
2023-02-05T03:22:03.166Z,103446.91
2023-02-05T03:24:36.660Z,103438.00
2023-02-05T03:27:05.566Z,103427.34
2023-02-05T03:29:44.654Z,103421.03
2023-02-05T03:32:31.089Z,103424.63
2023-02-05T03:35:10.927Z,103423.38
2023-02-05T03:37:48.753Z,103423.03
2023-02-05T03:40:25.700Z,103416.19
2023-02-05T03:43:04.432Z,103419.09
2023-02-05T03:45:47.022Z,103407.81
2023-02-05T03:48:37.328Z,103417.09
2023-02-05T03:51:22.793Z,103417.19
2023-02-05T03:54:02.951Z,103414.13
2023-02-05T03:56:38.534Z,103411.53
2023-02-05T03:59:07.691Z,103407.16
2023-02-05T04:01:37.412Z,103417.56
2023-02-05T04:04:05.913Z,103401.50
2023-02-05T04:06:33.937Z,103402.50
2023-02-05T04:09:01.975Z,103409.13
2023-02-05T04:11:32.929Z,103402.50
2023-02-05T04:14:03.821Z,103394.59
2023-02-05T04:16:32.937Z,103397.59
2023-02-05T04:19:04.561Z,103400.13
2023-02-05T04:21:35.818Z,103401.28
2023-02-05T04:24:04.103Z,103400.03
2023-02-05T04:26:32.424Z,103390.88
2023-02-05T04:29:05.776Z,103391.72
2023-02-05T04:31:41.050Z,103381.13
2023-02-05T04:34:10.706Z,103389.09
2023-02-05T04:36:39.124Z,103378.00
2023-02-05T04:39:07.173Z,103371.22
2023-02-05T04:41:35.225Z,103375.50
2023-02-05T04:44:03.762Z,103379.81
2023-02-05T04:46:32.339Z,103373.94
2023-02-05T04:49:01.412Z,103376.22
2023-02-05T04:51:30.950Z,103371.91
2023-02-05T04:53:59.498Z,103381.56
2023-02-05T04:56:29.745Z,103382.28
2023-02-05T04:58:57.682Z,103382.44
2023-02-05T05:01:25.827Z,103379.56
2023-02-05T05:03:54.030Z,103384.19
2023-02-05T05:06:22.225Z,103373.44
2023-02-05T05:08:51.750Z,103379.75
2023-02-05T05:11:20.733Z,103369.22
2023-02-05T05:13:51.923Z,103376.84
2023-02-05T05:16:20.309Z,103387.44
2023-02-05T05:18:48.404Z,103383.50
2023-02-05T05:21:16.500Z,103383.44
2023-02-05T05:23:44.689Z,103384.66
2023-02-05T05:26:14.513Z,103382.88
2023-02-05T05:28:42.624Z,103385.59
2023-02-05T05:31:13.802Z,103395.78
2023-02-05T05:33:42.083Z,103389.19
2023-02-05T05:36:10.550Z,103390.84
2023-02-05T05:38:38.909Z,103398.47
2023-02-05T05:41:24.464Z,103398.47
2023-02-05T05:43:55.482Z,103388.81
2023-02-05T05:46:26.112Z,103396.00
2023-02-05T05:48:55.796Z,103393.13
2023-02-05T05:51:26.002Z,103396.88
2023-02-05T05:53:55.214Z,103396.34
2023-02-05T05:56:23.873Z,103410.28
2023-02-05T05:58:53.457Z,103409.66
2023-02-05T06:01:23.002Z,103403.69
2023-02-05T06:03:51.087Z,103407.41
2023-02-05T06:06:19.478Z,103410.88
2023-02-05T06:08:47.640Z,103403.88
2023-02-05T06:11:15.771Z,103406.16
2023-02-05T06:13:43.745Z,103411.66
2023-02-05T06:16:13.164Z,103420.75
2023-02-05T06:18:41.176Z,103419.00
2023-02-05T06:21:10.723Z,103411.53
2023-02-05T06:23:38.901Z,103423.25
2023-02-05T06:26:07.787Z,103413.38
2023-02-05T06:28:36.256Z,103411.13
2023-02-05T06:31:05.280Z,103405.31
2023-02-05T06:33:34.909Z,103415.72
2023-02-05T06:36:03.210Z,103414.56
2023-02-05T06:38:31.321Z,103426.41
2023-02-05T06:40:59.541Z,103420.19
2023-02-05T06:43:27.958Z,103423.94
2023-02-05T06:45:56.811Z,103427.59
2023-02-05T06:48:25.134Z,103432.09
2023-02-05T06:50:55.063Z,103435.91
2023-02-05T06:53:23.211Z,103439.50
2023-02-05T06:55:51.276Z,103436.28
2023-02-05T06:58:19.412Z,103438.47
2023-02-05T07:00:47.449Z,103449.16
2023-02-05T07:03:15.453Z,103444.59
2023-02-05T07:05:43.594Z,103448.28
2023-02-05T07:08:13.089Z,103446.16
2023-02-05T07:10:41.229Z,103441.69
2023-02-05T07:13:10.101Z,103457.03
2023-02-05T07:15:38.590Z,103454.38
2023-02-05T07:18:07.883Z,103463.88
2023-02-05T07:20:36.063Z,103470.25
2023-02-05T07:23:05.557Z,103478.88
2023-02-05T07:25:37.804Z,103496.91
2023-02-05T07:28:06.661Z,103481.56
2023-02-05T07:30:35.176Z,103501.31
2023-02-05T07:33:04.766Z,103508.50
2023-02-05T07:35:35.344Z,103509.41
2023-02-05T07:38:04.114Z,103501.81
2023-02-05T07:40:32.538Z,103517.75
2023-02-05T07:43:02.189Z,103510.44
2023-02-05T07:45:30.666Z,103525.41
2023-02-05T07:47:58.871Z,103523.56
2023-02-05T07:50:26.986Z,103532.53
2023-02-05T07:52:55.004Z,103536.84
2023-02-05T07:55:23.758Z,103538.31
2023-02-05T07:57:51.902Z,103536.97
2023-02-05T08:00:25.209Z,103539.13
2023-02-05T08:02:53.361Z,103553.72
2023-02-05T08:05:21.971Z,103547.75
2023-02-05T08:07:50.600Z,103553.69
2023-02-05T08:10:19.730Z,103557.69
2023-02-05T08:12:47.734Z,103572.34
2023-02-05T08:15:15.781Z,103559.41
2023-02-05T08:17:45.308Z,103574.41
2023-02-05T08:20:14.198Z,103583.19
2023-02-05T08:22:45.227Z,103589.91
2023-02-05T08:25:15.342Z,103589.06
2023-02-05T08:27:44.341Z,103610.69
2023-02-05T08:30:14.953Z,103607.63
2023-02-05T08:32:42.926Z,103613.16
2023-02-05T08:35:12.501Z,103614.88
2023-02-05T08:37:40.792Z,103616.28
2023-02-05T08:40:10.826Z,103620.13
2023-02-05T08:42:39.180Z,103638.28
2023-02-05T08:45:09.136Z,103655.00
2023-02-05T08:47:37.532Z,103640.56
2023-02-05T08:50:07.073Z,103653.09
2023-02-05T08:52:36.441Z,103644.53
2023-02-05T08:55:05.878Z,103637.56
2023-02-05T08:57:34.551Z,103651.56
2023-02-05T09:00:02.526Z,103657.59
2023-02-05T09:02:32.243Z,103654.63
2023-02-05T09:05:08.510Z,103665.00
2023-02-05T09:07:39.856Z,103664.88
2023-02-05T09:10:09.529Z,103675.88
2023-02-05T09:12:37.568Z,103686.53
2023-02-05T09:15:06.701Z,103698.59
2023-02-05T09:17:34.724Z,103698.28
2023-02-05T09:20:03.250Z,103698.41
2023-02-05T09:22:33.498Z,103711.59
2023-02-05T09:25:03.664Z,103714.53
2023-02-05T09:27:32.051Z,103711.66
2023-02-05T09:30:00.343Z,103711.09
2023-02-05T09:32:28.364Z,103722.34
2023-02-05T09:34:56.357Z,103724.94
2023-02-05T09:37:25.080Z,103728.31
2023-02-05T09:40:19.557Z,103733.47
2023-02-05T09:42:49.336Z,103745.53
2023-02-05T09:45:38.695Z,103739.41
2023-02-05T09:48:25.002Z,103734.88
2023-02-05T09:50:53.691Z,103747.78
2023-02-05T09:53:25.348Z,103759.44
2023-02-05T09:55:54.696Z,103757.16
2023-02-05T09:58:28.571Z,103750.50
2023-02-05T10:01:03.450Z,103745.63
2023-02-05T10:03:38.526Z,103754.50
2023-02-05T10:06:23.040Z,103755.84
2023-02-05T10:09:02.815Z,103760.66
2023-02-05T10:11:42.689Z,103764.72
2023-02-05T10:14:24.701Z,103782.22
2023-02-05T10:17:09.309Z,103789.72
2023-02-05T10:19:55.156Z,103780.88
2023-02-05T10:22:28.736Z,103793.41
2023-02-05T10:25:34.170Z,103797.94
2023-02-05T10:28:10.550Z,103803.28
2023-02-05T10:30:50.398Z,103807.53
2023-02-05T10:33:36.740Z,103790.53
2023-02-05T10:36:08.148Z,103799.00
2023-02-05T10:38:44.298Z,103796.41
2023-02-05T10:41:37.302Z,103802.38
2023-02-05T10:44:14.962Z,103816.59
2023-02-05T10:46:51.877Z,103809.69
2023-02-05T10:49:25.070Z,103826.53
2023-02-05T10:51:55.027Z,103819.59
2023-02-05T10:54:28.414Z,103821.75
2023-02-05T10:56:59.169Z,103830.00
2023-02-05T10:59:30.218Z,103824.84
2023-02-05T11:02:03.299Z,103827.97
2023-02-05T11:04:38.917Z,103835.88
2023-02-05T11:07:15.256Z,103839.41
2023-02-05T11:09:45.462Z,103839.66
2023-02-05T11:12:23.090Z,103822.41
2023-02-05T11:14:58.842Z,103827.50
2023-02-05T11:17:33.084Z,103832.78
2023-02-05T11:20:05.048Z,103832.44
2023-02-05T11:22:35.774Z,103834.56
2023-02-05T11:25:17.364Z,103827.00
2023-02-05T11:27:58.060Z,103825.56
2023-02-05T11:33:27.709Z,103838.53
2023-02-05T11:35:59.077Z,103836.81
2023-02-05T11:38:33.757Z,103846.75
2023-02-05T11:41:04.670Z,103850.00
2023-02-05T11:43:35.803Z,103841.63
2023-02-05T11:46:09.907Z,103841.69
2023-02-05T11:48:44.868Z,103844.09
2023-02-05T11:51:16.824Z,103841.94
2023-02-05T11:53:53.540Z,103837.72
2023-02-05T11:56:25.393Z,103837.38
2023-02-05T11:59:01.528Z,103836.28
2023-02-05T12:01:34.204Z,103832.91
2023-02-05T12:04:15.768Z,103831.63
2023-02-05T12:06:50.119Z,103830.44
2023-02-05T12:09:21.760Z,103826.50
2023-02-05T12:12:03.699Z,103835.81
2023-02-05T12:14:43.604Z,103834.59
2023-02-05T12:17:34.227Z,103844.03
2023-02-05T12:20:16.780Z,103842.50
2023-02-05T12:23:03.785Z,103830.56
2023-02-05T12:25:37.655Z,103833.22
2023-02-05T12:28:21.570Z,103845.53
2023-02-05T12:31:00.540Z,103834.34
2023-02-05T12:33:45.548Z,103837.63
2023-02-05T12:36:30.254Z,103853.75
2023-02-05T12:39:10.456Z,103863.69
2023-02-05T12:41:49.157Z,103855.06
2023-02-05T12:44:32.282Z,103849.09
2023-02-05T12:47:14.485Z,103847.53
2023-02-05T12:50:01.525Z,103868.44
2023-02-05T12:52:42.690Z,103854.63
2023-02-05T12:55:25.292Z,103856.41
2023-02-05T12:57:57.675Z,103864.28
2023-02-05T13:00:30.241Z,103875.19
2023-02-05T13:03:07.632Z,103875.88
2023-02-05T13:05:41.632Z,103864.94
2023-02-05T13:08:17.020Z,103865.28
2023-02-05T13:10:51.293Z,103879.59
2023-02-05T13:13:26.229Z,103874.84
2023-02-05T13:16:03.121Z,103877.47
2023-02-05T13:18:36.176Z,103890.19
2023-02-05T13:21:24.692Z,103881.00
2023-02-05T13:24:30.876Z,103883.56
2023-02-05T13:27:16.821Z,103880.50
2023-02-05T13:29:51.417Z,103883.75
2023-02-05T13:32:25.318Z,103889.00
2023-02-05T13:34:56.560Z,103890.66
2023-02-05T13:37:59.411Z,103893.75
2023-02-05T13:40:56.442Z,103902.97
2023-02-05T13:43:49.636Z,103903.81
2023-02-05T13:47:02.226Z,103907.09
2023-02-05T13:50:18.772Z,103905.97
2023-02-05T13:53:24.045Z,103903.06
2023-02-05T13:56:19.583Z,103896.13
2023-02-05T13:58:52.078Z,103910.97
2023-02-05T14:01:25.884Z,103910.50
2023-02-05T14:03:58.853Z,103916.13
2023-02-05T14:06:31.943Z,103901.47
2023-02-05T14:09:07.985Z,103904.28
2023-02-05T14:11:52.762Z,103904.78
2023-02-05T14:14:27.726Z,103900.94
2023-02-05T14:16:57.620Z,103908.94
2023-02-05T14:19:47.293Z,103909.47
2023-02-05T14:22:36.142Z,103923.06
2023-02-05T14:25:05.801Z,103915.00
2023-02-05T14:27:55.526Z,103931.88
2023-02-05T14:30:49.903Z,103931.94
2023-02-05T14:33:39.786Z,103933.63
2023-02-05T14:36:47.274Z,103935.41
2023-02-05T14:39:30.481Z,103930.03
2023-02-05T14:42:01.014Z,103951.78
2023-02-05T14:44:33.711Z,103952.88
2023-02-05T14:47:07.806Z,103962.22
2023-02-05T14:49:43.013Z,103962.78
2023-02-05T14:52:28.915Z,103971.41
2023-02-05T14:55:01.711Z,103975.09
2023-02-05T14:57:42.109Z,103978.09
2023-02-05T15:00:30.520Z,103973.16
2023-02-05T15:03:38.220Z,103986.72
2023-02-05T15:06:10.581Z,103976.59
2023-02-05T15:08:47.885Z,103983.63
2023-02-05T15:11:24.971Z,103976.78
2023-02-05T15:14:33.183Z,103987.50
2023-02-05T15:17:54.070Z,103983.63
2023-02-05T15:20:32.677Z,103994.41
2023-02-05T15:23:35.417Z,103998.78
2023-02-05T15:26:07.372Z,103995.25
2023-02-05T15:28:40.645Z,103998.50
2023-02-05T15:31:19.441Z,103996.50
2023-02-05T15:33:55.422Z,104005.00
2023-02-05T15:36:33.581Z,104010.03
2023-02-05T15:39:19.708Z,104015.84
2023-02-05T15:41:48.861Z,104009.63
2023-02-05T15:44:27.886Z,104015.56
2023-02-05T15:46:57.856Z,104009.94
2023-02-05T15:49:33.584Z,104020.03
2023-02-05T15:52:03.439Z,104026.75
2023-02-05T15:54:35.257Z,104025.81
2023-02-05T15:57:06.489Z,104033.16
2023-02-05T15:59:37.235Z,104032.38
2023-02-05T16:02:10.176Z,104032.28
2023-02-05T16:04:40.195Z,104034.16
2023-02-05T16:07:23.047Z,104042.94
2023-02-05T16:09:56.087Z,104050.31
2023-02-05T16:12:25.094Z,104050.78
2023-02-05T16:15:04.809Z,104046.22
2023-02-05T16:17:40.631Z,104059.25
2023-02-05T16:20:28.228Z,104045.88
2023-02-05T16:23:00.927Z,104058.88
2023-02-05T16:25:41.329Z,104071.19
2023-02-05T16:28:20.165Z,104066.31
2023-02-05T16:30:53.560Z,104076.38
2023-02-05T16:33:31.920Z,104065.91
2023-02-05T16:36:03.259Z,104066.38
2023-02-05T16:38:35.695Z,104082.44
2023-02-05T16:41:22.223Z,104089.56
2023-02-05T16:43:52.804Z,104090.69
2023-02-05T16:46:26.450Z,104105.28
2023-02-05T16:48:57.624Z,104115.06
2023-02-05T16:51:32.841Z,104101.16
2023-02-05T16:54:28.222Z,104110.59
2023-02-05T16:57:01.747Z,104112.13
2023-02-05T16:59:34.695Z,104116.97
2023-02-05T17:02:04.880Z,104126.75
2023-02-05T17:04:35.590Z,104119.94
2023-02-05T17:07:06.984Z,104121.53
2023-02-05T17:09:38.316Z,104124.13
2023-02-05T17:12:41.059Z,104124.44
2023-02-05T17:15:30.716Z,104135.78
2023-02-05T17:18:04.707Z,104132.69
2023-02-05T17:20:34.440Z,104139.03
2023-02-05T17:23:15.221Z,104130.19
2023-02-05T17:25:55.541Z,104130.03
2023-02-05T17:28:30.533Z,104135.72
2023-02-05T17:31:03.462Z,104145.22
2023-02-05T17:33:32.347Z,104156.75
2023-02-05T17:36:03.444Z,104165.19
2023-02-05T17:38:35.440Z,104171.00
2023-02-05T17:41:22.080Z,104169.88
2023-02-05T17:43:52.249Z,104182.22
2023-02-05T17:46:25.011Z,104189.06
2023-02-05T17:48:52.999Z,104176.56
2023-02-05T17:51:23.146Z,104179.19
2023-02-05T17:53:52.128Z,104178.47
2023-02-05T17:56:22.532Z,104167.44
2023-02-05T17:58:52.199Z,104167.34
2023-02-05T18:01:22.530Z,104167.19
2023-02-05T18:03:50.682Z,104166.97
2023-02-05T18:06:19.957Z,104168.94
2023-02-05T18:08:48.101Z,104176.44
2023-02-05T18:11:16.450Z,104179.06
2023-02-05T18:13:45.994Z,104187.09
2023-02-05T18:16:14.201Z,104185.09
2023-02-05T18:18:42.581Z,104176.63
2023-02-05T18:21:11.162Z,104179.34
2023-02-05T18:23:40.354Z,104180.22
2023-02-05T18:26:13.490Z,104177.75
2023-02-05T18:28:44.191Z,104179.50
2023-02-05T18:35:04.291Z,104190.31
2023-02-05T18:37:32.673Z,104187.81
2023-02-05T18:40:00.807Z,104193.19
2023-02-05T18:42:30.862Z,104199.63
2023-02-05T18:44:59.108Z,104202.66
2023-02-05T18:47:28.687Z,104205.81
2023-02-05T18:49:57.558Z,104203.50
2023-02-05T18:52:27.431Z,104198.63
2023-02-05T18:54:55.959Z,104194.19
2023-02-05T18:57:24.899Z,104200.19
2023-02-05T18:59:53.906Z,104200.03
2023-02-05T19:02:22.546Z,104204.28
2023-02-05T19:04:55.841Z,104200.25
2023-02-05T19:07:24.935Z,104199.88
2023-02-05T19:09:53.175Z,104203.25
2023-02-05T19:12:21.523Z,104201.78
2023-02-05T19:14:50.233Z,104202.34
2023-02-05T19:17:19.072Z,104209.66
2023-02-05T19:19:52.071Z,104217.81
2023-02-05T19:22:20.255Z,104217.25
2023-02-05T19:24:48.630Z,104219.72
2023-02-05T19:27:18.083Z,104222.00
2023-02-05T19:29:46.304Z,104221.84
2023-02-05T19:32:14.312Z,104222.75
2023-02-05T19:34:43.325Z,104226.81
2023-02-05T19:37:12.952Z,104221.06
2023-02-05T19:39:40.983Z,104230.09
2023-02-05T19:42:08.935Z,104234.34
2023-02-05T19:44:37.093Z,104247.06
2023-02-05T19:47:06.337Z,104245.75
2023-02-05T19:49:35.704Z,104251.31
2023-02-05T19:52:03.683Z,104257.41
2023-02-05T19:54:33.335Z,104266.72
2023-02-05T19:57:01.559Z,104255.53
2023-02-05T19:59:29.953Z,104252.19
2023-02-05T20:01:58.370Z,104250.56
2023-02-05T20:04:28.609Z,104259.06
2023-02-05T20:06:58.608Z,104259.38
2023-02-05T20:09:29.042Z,104266.44
2023-02-05T20:11:59.516Z,104261.88
2023-02-05T20:14:29.453Z,104265.97
2023-02-05T20:17:01.647Z,104264.91
2023-02-05T20:19:30.271Z,104263.84
2023-02-05T20:21:58.558Z,104253.50
2023-02-05T20:24:28.240Z,104268.84
2023-02-05T20:27:00.569Z,104251.75
2023-02-05T20:29:55.510Z,104255.25
2023-02-05T20:32:27.113Z,104255.53
2023-02-05T20:34:55.779Z,104263.72
2023-02-05T20:37:26.395Z,104267.66
2023-02-05T20:39:57.740Z,104258.13
2023-02-05T20:42:29.847Z,104267.72
2023-02-05T20:44:58.268Z,104267.38
2023-02-05T20:47:26.825Z,104268.91
2023-02-05T20:50:01.057Z,104263.25
2023-02-05T20:52:44.129Z,104264.34
2023-02-05T20:55:14.915Z,104266.91
2023-02-05T20:57:46.235Z,104276.13
2023-02-05T21:00:16.133Z,104274.13
2023-02-05T21:02:44.899Z,104279.97
2023-02-05T21:05:14.822Z,104285.22
2023-02-05T21:07:44.324Z,104279.03
2023-02-05T21:10:13.799Z,104277.25
2023-02-05T21:12:42.547Z,104281.00
2023-02-05T21:15:13.362Z,104272.66
2023-02-05T21:17:43.005Z,104272.50
2023-02-05T21:20:12.934Z,104276.78
2023-02-05T21:22:45.520Z,104275.81
2023-02-05T21:25:14.688Z,104270.97
2023-02-05T21:27:47.299Z,104284.00
2023-02-05T21:30:18.140Z,104277.50
2023-02-05T21:32:48.166Z,104284.56
2023-02-05T21:35:19.082Z,104294.59
2023-02-05T21:37:48.090Z,104297.78
2023-02-05T21:40:17.964Z,104296.94
2023-02-05T21:42:47.578Z,104309.88
2023-02-05T21:45:18.539Z,104322.31
2023-02-05T21:47:48.190Z,104307.38
2023-02-05T21:50:16.903Z,104324.16
2023-02-05T21:52:48.993Z,104317.56
2023-02-05T21:55:18.191Z,104323.75
2023-02-05T21:57:47.096Z,104324.28
2023-02-05T22:00:18.649Z,104327.00
2023-02-05T22:02:47.531Z,104325.94
2023-02-05T22:05:16.612Z,104310.44
2023-02-05T22:07:46.055Z,104311.47
2023-02-05T22:10:14.479Z,104316.06
2023-02-05T22:12:47.425Z,104306.63
2023-02-05T22:15:17.441Z,104310.38
2023-02-05T22:17:45.873Z,104315.06
2023-02-05T22:20:15.714Z,104321.78
2023-02-05T22:22:43.989Z,104321.84
2023-02-05T22:25:12.986Z,104325.84
2023-02-05T22:27:42.924Z,104323.00
2023-02-05T22:30:11.913Z,104316.81
2023-02-05T22:32:41.345Z,104324.34
2023-02-05T22:35:10.040Z,104325.78
2023-02-05T22:37:38.366Z,104325.72
2023-02-05T22:40:07.670Z,104326.19
2023-02-05T22:42:35.932Z,104314.19
2023-02-05T22:45:04.626Z,104314.22
2023-02-05T22:47:33.466Z,104304.94
2023-02-05T22:50:03.444Z,104306.91
2023-02-05T22:52:31.739Z,104305.81
2023-02-05T22:54:59.812Z,104301.13
2023-02-05T22:57:28.027Z,104305.28
2023-02-05T22:59:57.095Z,104302.75
2023-02-05T23:02:25.239Z,104314.97
2023-02-05T23:04:54.287Z,104310.84
2023-02-05T23:07:23.802Z,104312.13
2023-02-05T23:09:51.995Z,104297.19
2023-02-05T23:12:25.208Z,104293.94
2023-02-05T23:14:54.363Z,104295.44
2023-02-05T23:17:24.614Z,104290.63
2023-02-05T23:19:53.268Z,104286.13
2023-02-05T23:22:21.929Z,104290.75
2023-02-05T23:24:53.744Z,104288.09
2023-02-05T23:27:30.378Z,104294.88
2023-02-05T23:29:58.468Z,104293.84
2023-02-05T23:32:30.736Z,104290.38
2023-02-05T23:35:02.581Z,104284.94
2023-02-05T23:37:30.835Z,104282.72
2023-02-05T23:40:00.348Z,104280.22
2023-02-05T23:42:28.641Z,104273.09
2023-02-05T23:44:59.434Z,104287.38
2023-02-05T23:47:31.556Z,104283.56
2023-02-05T23:50:00.054Z,104288.56
2023-02-05T23:52:28.534Z,104287.16
2023-02-05T23:54:56.831Z,104285.94
2023-02-05T23:57:28.726Z,104286.31
2023-02-05T23:59:59.818Z,104295.03
